sensor_id;sensor_type;location;lat;lon;timestamp;P1;durP1;ratioP1;P2;durP2;ratioP2
52574;SDS011;38468;48.114;-1.684;2023-05-02T00:01:23;14.43;;;4.90;;
52574;SDS011;38468;48.114;-1.684;2023-05-02T00:03:24;6.15;;;3.45;;
52574;SDS011;38468;48.114;-1.684;2023-05-02T00:05:25;13.80;;;4.30;;
52574;SDS011;38468;48.114;-1.684;2023-05-02T00:07:26;8.18;;;3.85;;
52574;SDS011;38468;48.114;-1.684;2023-05-02T00:09:27;8.98;;;4.43;;
52574;SDS011;38468;48.114;-1.684;2023-05-02T00:11:28;11.00;;;4.47;;
52574;SDS011;38468;48.114;-1.684;2023-05-02T00:13:29;7.53;;;3.60;;
52574;SDS011;38468;48.114;-1.684;2023-05-02T00:15:30;9.43;;;3.90;;
52574;SDS011;38468;48.114;-1.684;2023-05-02T00:17:30;8.93;;;4.15;;
52574;SDS011;38468;48.114;-1.684;2023-05-02T00:19:31;10.60;;;4.40;;
52574;SDS011;38468;48.114;-1.684;2023-05-02T00:21:32;8.63;;;3.92;;
52574;SDS011;38468;48.114;-1.684;2023-05-02T00:23:33;9.02;;;3.75;;
52574;SDS011;38468;48.114;-1.684;2023-05-02T00:25:33;6.40;;;3.67;;
52574;SDS011;38468;48.114;-1.684;2023-05-02T00:27:35;9.90;;;4.53;;
52574;SDS011;38468;48.114;-1.684;2023-05-02T00:29:35;10.95;;;3.92;;
52574;SDS011;38468;48.114;-1.684;2023-05-02T00:31:36;4.68;;;3.53;;
52574;SDS011;38468;48.114;-1.684;2023-05-02T00:33:39;9.88;;;3.75;;
52574;SDS011;38468;48.114;-1.684;2023-05-02T00:35:40;13.63;;;4.85;;
52574;SDS011;38468;48.114;-1.684;2023-05-02T00:37:40;11.02;;;4.22;;
52574;SDS011;38468;48.114;-1.684;2023-05-02T00:39:47;11.77;;;4.50;;
52574;SDS011;38468;48.114;-1.684;2023-05-02T00:41:48;13.13;;;5.38;;
52574;SDS011;38468;48.114;-1.684;2023-05-02T00:43:48;8.77;;;5.68;;
52574;SDS011;38468;48.114;-1.684;2023-05-02T00:45:49;14.48;;;4.90;;
52574;SDS011;38468;48.114;-1.684;2023-05-02T00:47:50;7.05;;;3.63;;
52574;SDS011;38468;48.114;-1.684;2023-05-02T00:49:50;8.35;;;4.60;;
52574;SDS011;38468;48.114;-1.684;2023-05-02T00:51:52;12.45;;;4.85;;
52574;SDS011;38468;48.114;-1.684;2023-05-02T00:53:53;13.48;;;5.55;;
52574;SDS011;38468;48.114;-1.684;2023-05-02T00:55:53;11.52;;;4.75;;
52574;SDS011;38468;48.114;-1.684;2023-05-02T00:57:54;8.73;;;3.88;;
52574;SDS011;38468;48.114;-1.684;2023-05-02T00:59:55;13.88;;;5.45;;
52574;SDS011;38468;48.114;-1.684;2023-05-02T01:02:01;12.45;;;5.25;;
52574;SDS011;38468;48.114;-1.684;2023-05-02T01:04:36;8.85;;;5.30;;
52574;SDS011;38468;48.114;-1.684;2023-05-02T01:11:52;10.05;;;4.10;;
52574;SDS011;38468;48.114;-1.684;2023-05-02T01:14:02;12.20;;;3.72;;
52574;SDS011;38468;48.114;-1.684;2023-05-02T01:16:04;11.32;;;6.25;;
52574;SDS011;38468;48.114;-1.684;2023-05-02T01:18:08;11.00;;;4.78;;
52574;SDS011;38468;48.114;-1.684;2023-05-02T01:20:13;13.70;;;4.68;;
52574;SDS011;38468;48.114;-1.684;2023-05-02T01:22:19;14.38;;;4.82;;
52574;SDS011;38468;48.114;-1.684;2023-05-02T01:24:27;9.38;;;4.45;;
52574;SDS011;38468;48.114;-1.684;2023-05-02T01:29:10;10.23;;;4.60;;
52574;SDS011;38468;48.114;-1.684;2023-05-02T01:31:11;12.27;;;3.73;;
52574;SDS011;38468;48.114;-1.684;2023-05-02T01:33:12;16.92;;;5.68;;
52574;SDS011;38468;48.114;-1.684;2023-05-02T01:35:17;9.77;;;5.07;;
52574;SDS011;38468;48.114;-1.684;2023-05-02T01:37:19;14.82;;;6.07;;
52574;SDS011;38468;48.114;-1.684;2023-05-02T01:39:21;16.45;;;5.88;;
52574;SDS011;38468;48.114;-1.684;2023-05-02T01:41:24;13.88;;;5.53;;
52574;SDS011;38468;48.114;-1.684;2023-05-02T01:43:26;18.33;;;6.82;;
52574;SDS011;38468;48.114;-1.684;2023-05-02T01:45:27;16.05;;;6.05;;
52574;SDS011;38468;48.114;-1.684;2023-05-02T01:47:29;13.15;;;5.82;;
52574;SDS011;38468;48.114;-1.684;2023-05-02T01:49:34;17.65;;;6.03;;
52574;SDS011;38468;48.114;-1.684;2023-05-02T01:51:37;15.48;;;7.18;;
52574;SDS011;38468;48.114;-1.684;2023-05-02T01:53:43;15.25;;;6.78;;
52574;SDS011;38468;48.114;-1.684;2023-05-02T01:55:47;22.65;;;6.72;;
52574;SDS011;38468;48.114;-1.684;2023-05-02T01:57:49;21.60;;;7.90;;
52574;SDS011;38468;48.114;-1.684;2023-05-02T01:59:56;19.30;;;7.20;;
52574;SDS011;38468;48.114;-1.684;2023-05-02T02:01:58;18.50;;;7.05;;
52574;SDS011;38468;48.114;-1.684;2023-05-02T02:04:01;21.38;;;8.73;;
52574;SDS011;38468;48.114;-1.684;2023-05-02T02:06:03;14.80;;;7.50;;
52574;SDS011;38468;48.114;-1.684;2023-05-02T02:08:05;16.73;;;7.53;;
52574;SDS011;38468;48.114;-1.684;2023-05-02T02:10:06;14.02;;;7.22;;
52574;SDS011;38468;48.114;-1.684;2023-05-02T02:12:11;18.90;;;7.40;;
52574;SDS011;38468;48.114;-1.684;2023-05-02T02:14:17;18.35;;;7.97;;
52574;SDS011;38468;48.114;-1.684;2023-05-02T02:16:23;23.25;;;8.40;;
52574;SDS011;38468;48.114;-1.684;2023-05-02T02:18:28;21.67;;;8.48;;
52574;SDS011;38468;48.114;-1.684;2023-05-02T02:20:31;21.75;;;7.32;;
52574;SDS011;38468;48.114;-1.684;2023-05-02T02:22:33;17.85;;;7.82;;
52574;SDS011;38468;48.114;-1.684;2023-05-02T02:24:37;17.52;;;7.80;;
52574;SDS011;38468;48.114;-1.684;2023-05-02T02:26:39;14.65;;;7.93;;
52574;SDS011;38468;48.114;-1.684;2023-05-02T02:28:40;18.92;;;8.63;;
52574;SDS011;38468;48.114;-1.684;2023-05-02T02:30:41;17.10;;;7.20;;
52574;SDS011;38468;48.114;-1.684;2023-05-02T02:32:42;15.50;;;7.13;;
52574;SDS011;38468;48.114;-1.684;2023-05-02T02:34:43;16.98;;;7.68;;
52574;SDS011;38468;48.114;-1.684;2023-05-02T02:36:49;14.90;;;7.18;;
52574;SDS011;38468;48.114;-1.684;2023-05-02T02:39:01;12.88;;;7.05;;
52574;SDS011;38468;48.114;-1.684;2023-05-02T02:41:50;17.73;;;6.82;;
52574;SDS011;38468;48.114;-1.684;2023-05-02T02:45:56;11.85;;;6.65;;
52574;SDS011;38468;48.114;-1.684;2023-05-02T02:52:58;13.73;;;5.78;;
52574;SDS011;38468;48.114;-1.684;2023-05-02T02:55:06;11.27;;;5.85;;
52574;SDS011;38468;48.114;-1.684;2023-05-02T02:57:16;10.50;;;6.03;;
52574;SDS011;38468;48.114;-1.684;2023-05-02T02:59:37;13.77;;;6.45;;
52574;SDS011;38468;48.114;-1.684;2023-05-02T03:01:45;18.45;;;7.45;;
52574;SDS011;38468;48.114;-1.684;2023-05-02T03:03:52;13.90;;;7.70;;
52574;SDS011;38468;48.114;-1.684;2023-05-02T03:07:57;9.43;;;5.75;;
52574;SDS011;38468;48.114;-1.684;2023-05-02T03:10:01;12.90;;;7.15;;
52574;SDS011;38468;48.114;-1.684;2023-05-02T03:12:02;11.07;;;7.10;;
52574;SDS011;38468;48.114;-1.684;2023-05-02T03:14:03;13.30;;;7.82;;
52574;SDS011;38468;48.114;-1.684;2023-05-02T03:18:39;16.65;;;7.05;;
52574;SDS011;38468;48.114;-1.684;2023-05-02T03:20:40;16.13;;;8.38;;
52574;SDS011;38468;48.114;-1.684;2023-05-02T03:22:41;15.77;;;7.68;;
52574;SDS011;38468;48.114;-1.684;2023-05-02T03:24:42;19.33;;;8.23;;
52574;SDS011;38468;48.114;-1.684;2023-05-02T03:26:42;15.13;;;7.43;;
52574;SDS011;38468;48.114;-1.684;2023-05-02T03:28:43;12.27;;;7.22;;
52574;SDS011;38468;48.114;-1.684;2023-05-02T03:30:45;10.95;;;7.57;;
52574;SDS011;38468;48.114;-1.684;2023-05-02T03:32:46;12.95;;;7.50;;
52574;SDS011;38468;48.114;-1.684;2023-05-02T03:34:47;12.13;;;7.20;;
52574;SDS011;38468;48.114;-1.684;2023-05-02T03:36:48;15.30;;;7.97;;
52574;SDS011;38468;48.114;-1.684;2023-05-02T03:38:49;14.75;;;7.43;;
52574;SDS011;38468;48.114;-1.684;2023-05-02T03:40:49;13.88;;;7.22;;
52574;SDS011;38468;48.114;-1.684;2023-05-02T03:42:50;15.43;;;8.75;;
52574;SDS011;38468;48.114;-1.684;2023-05-02T03:44:51;11.73;;;6.78;;
52574;SDS011;38468;48.114;-1.684;2023-05-02T03:46:52;17.80;;;7.82;;
52574;SDS011;38468;48.114;-1.684;2023-05-02T03:48:53;12.00;;;6.53;;
52574;SDS011;38468;48.114;-1.684;2023-05-02T03:50:54;17.70;;;8.55;;
52574;SDS011;38468;48.114;-1.684;2023-05-02T03:52:54;14.73;;;7.93;;
52574;SDS011;38468;48.114;-1.684;2023-05-02T03:54:55;11.80;;;8.30;;
52574;SDS011;38468;48.114;-1.684;2023-05-02T03:56:56;12.93;;;7.32;;
52574;SDS011;38468;48.114;-1.684;2023-05-02T03:58:57;12.27;;;7.43;;
52574;SDS011;38468;48.114;-1.684;2023-05-02T04:00:57;14.00;;;8.25;;
52574;SDS011;38468;48.114;-1.684;2023-05-02T04:03:01;17.63;;;9.15;;
52574;SDS011;38468;48.114;-1.684;2023-05-02T04:05:02;12.90;;;7.55;;
52574;SDS011;38468;48.114;-1.684;2023-05-02T04:07:03;11.27;;;7.10;;
52574;SDS011;38468;48.114;-1.684;2023-05-02T04:09:06;12.50;;;7.75;;
52574;SDS011;38468;48.114;-1.684;2023-05-02T04:11:06;11.10;;;7.15;;
52574;SDS011;38468;48.114;-1.684;2023-05-02T04:13:07;10.32;;;7.15;;
52574;SDS011;38468;48.114;-1.684;2023-05-02T04:15:08;10.88;;;6.80;;
52574;SDS011;38468;48.114;-1.684;2023-05-02T04:17:09;21.27;;;9.15;;
52574;SDS011;38468;48.114;-1.684;2023-05-02T04:19:10;12.45;;;7.70;;
52574;SDS011;38468;48.114;-1.684;2023-05-02T04:21:11;18.05;;;9.27;;
52574;SDS011;38468;48.114;-1.684;2023-05-02T04:23:11;10.20;;;7.55;;
52574;SDS011;38468;48.114;-1.684;2023-05-02T04:25:13;12.97;;;8.00;;
52574;SDS011;38468;48.114;-1.684;2023-05-02T04:27:14;12.93;;;9.00;;
52574;SDS011;38468;48.114;-1.684;2023-05-02T04:29:14;13.65;;;8.35;;
52574;SDS011;38468;48.114;-1.684;2023-05-02T04:31:15;9.63;;;7.47;;
52574;SDS011;38468;48.114;-1.684;2023-05-02T04:33:16;13.52;;;8.40;;
52574;SDS011;38468;48.114;-1.684;2023-05-02T04:35:17;11.77;;;7.10;;
52574;SDS011;38468;48.114;-1.684;2023-05-02T04:37:18;11.00;;;7.25;;
52574;SDS011;38468;48.114;-1.684;2023-05-02T04:39:18;13.15;;;7.72;;
52574;SDS011;38468;48.114;-1.684;2023-05-02T04:41:19;9.70;;;6.55;;
52574;SDS011;38468;48.114;-1.684;2023-05-02T04:43:20;12.45;;;8.35;;
52574;SDS011;38468;48.114;-1.684;2023-05-02T04:45:21;10.57;;;6.78;;
52574;SDS011;38468;48.114;-1.684;2023-05-02T04:47:22;12.23;;;6.72;;
52574;SDS011;38468;48.114;-1.684;2023-05-02T04:49:22;13.77;;;7.03;;
52574;SDS011;38468;48.114;-1.684;2023-05-02T04:51:23;11.10;;;7.50;;
52574;SDS011;38468;48.114;-1.684;2023-05-02T04:53:23;15.80;;;9.48;;
52574;SDS011;38468;48.114;-1.684;2023-05-02T04:55:24;16.45;;;8.07;;
52574;SDS011;38468;48.114;-1.684;2023-05-02T04:57:25;12.73;;;7.63;;
52574;SDS011;38468;48.114;-1.684;2023-05-02T04:59:25;17.00;;;9.73;;
52574;SDS011;38468;48.114;-1.684;2023-05-02T05:01:26;9.07;;;8.00;;
52574;SDS011;38468;48.114;-1.684;2023-05-02T05:03:27;15.38;;;8.88;;
52574;SDS011;38468;48.114;-1.684;2023-05-02T05:05:32;17.83;;;8.63;;
52574;SDS011;38468;48.114;-1.684;2023-05-02T05:07:33;13.20;;;8.68;;
52574;SDS011;38468;48.114;-1.684;2023-05-02T05:09:34;14.07;;;7.68;;
52574;SDS011;38468;48.114;-1.684;2023-05-02T05:11:34;20.73;;;11.07;;
52574;SDS011;38468;48.114;-1.684;2023-05-02T05:13:36;15.18;;;8.40;;
52574;SDS011;38468;48.114;-1.684;2023-05-02T05:15:37;12.10;;;8.13;;
52574;SDS011;38468;48.114;-1.684;2023-05-02T05:17:38;12.27;;;7.60;;
52574;SDS011;38468;48.114;-1.684;2023-05-02T05:19:38;15.30;;;8.77;;
52574;SDS011;38468;48.114;-1.684;2023-05-02T05:21:39;12.15;;;7.53;;
52574;SDS011;38468;48.114;-1.684;2023-05-02T05:23:40;10.93;;;7.90;;
52574;SDS011;38468;48.114;-1.684;2023-05-02T05:25:44;15.70;;;8.43;;
52574;SDS011;38468;48.114;-1.684;2023-05-02T05:27:45;15.52;;;10.93;;
52574;SDS011;38468;48.114;-1.684;2023-05-02T05:29:46;15.40;;;8.10;;
52574;SDS011;38468;48.114;-1.684;2023-05-02T05:31:47;13.45;;;7.68;;
52574;SDS011;38468;48.114;-1.684;2023-05-02T05:33:47;11.15;;;8.07;;
52574;SDS011;38468;48.114;-1.684;2023-05-02T05:35:48;14.05;;;8.15;;
52574;SDS011;38468;48.114;-1.684;2023-05-02T05:37:48;12.20;;;7.85;;
52574;SDS011;38468;48.114;-1.684;2023-05-02T05:39:49;11.23;;;7.53;;
52574;SDS011;38468;48.114;-1.684;2023-05-02T05:41:50;18.23;;;8.55;;
52574;SDS011;38468;48.114;-1.684;2023-05-02T05:43:51;11.03;;;7.60;;
52574;SDS011;38468;48.114;-1.684;2023-05-02T05:45:52;12.80;;;8.48;;
52574;SDS011;38468;48.114;-1.684;2023-05-02T05:47:53;16.88;;;8.15;;
52574;SDS011;38468;48.114;-1.684;2023-05-02T05:49:55;12.27;;;7.80;;
52574;SDS011;38468;48.114;-1.684;2023-05-02T05:51:56;12.43;;;7.45;;
52574;SDS011;38468;48.114;-1.684;2023-05-02T05:53:57;9.18;;;7.40;;
52574;SDS011;38468;48.114;-1.684;2023-05-02T05:55:57;16.55;;;8.20;;
52574;SDS011;38468;48.114;-1.684;2023-05-02T05:57:58;19.08;;;8.73;;
52574;SDS011;38468;48.114;-1.684;2023-05-02T05:59:59;12.77;;;8.82;;
52574;SDS011;38468;48.114;-1.684;2023-05-02T06:02:00;14.45;;;8.90;;
52574;SDS011;38468;48.114;-1.684;2023-05-02T06:04:00;15.00;;;8.35;;
52574;SDS011;38468;48.114;-1.684;2023-05-02T06:06:02;11.63;;;9.23;;
52574;SDS011;38468;48.114;-1.684;2023-05-02T06:08:02;18.33;;;9.23;;
52574;SDS011;38468;48.114;-1.684;2023-05-02T06:10:03;11.02;;;8.05;;
52574;SDS011;38468;48.114;-1.684;2023-05-02T06:12:04;15.02;;;7.95;;
52574;SDS011;38468;48.114;-1.684;2023-05-02T06:14:05;11.82;;;8.25;;
52574;SDS011;38468;48.114;-1.684;2023-05-02T06:16:06;15.32;;;8.27;;
52574;SDS011;38468;48.114;-1.684;2023-05-02T06:18:07;14.98;;;8.10;;
52574;SDS011;38468;48.114;-1.684;2023-05-02T06:20:07;12.63;;;7.72;;
52574;SDS011;38468;48.114;-1.684;2023-05-02T06:22:10;13.60;;;9.20;;
52574;SDS011;38468;48.114;-1.684;2023-05-02T06:24:12;11.85;;;7.47;;
52574;SDS011;38468;48.114;-1.684;2023-05-02T06:26:13;8.77;;;7.03;;
52574;SDS011;38468;48.114;-1.684;2023-05-02T06:28:14;12.82;;;7.13;;
52574;SDS011;38468;48.114;-1.684;2023-05-02T06:30:14;12.20;;;8.15;;
52574;SDS011;38468;48.114;-1.684;2023-05-02T06:32:15;13.73;;;7.65;;
52574;SDS011;38468;48.114;-1.684;2023-05-02T06:34:16;14.57;;;7.60;;
52574;SDS011;38468;48.114;-1.684;2023-05-02T06:36:16;15.32;;;8.27;;
52574;SDS011;38468;48.114;-1.684;2023-05-02T06:38:17;13.98;;;7.53;;
52574;SDS011;38468;48.114;-1.684;2023-05-02T06:40:18;15.38;;;8.63;;
52574;SDS011;38468;48.114;-1.684;2023-05-02T06:42:19;16.13;;;8.38;;
52574;SDS011;38468;48.114;-1.684;2023-05-02T06:44:19;14.57;;;8.80;;
52574;SDS011;38468;48.114;-1.684;2023-05-02T06:46:20;14.55;;;9.70;;
52574;SDS011;38468;48.114;-1.684;2023-05-02T06:48:21;14.63;;;8.95;;
52574;SDS011;38468;48.114;-1.684;2023-05-02T06:50:22;14.98;;;8.23;;
52574;SDS011;38468;48.114;-1.684;2023-05-02T06:52:22;12.25;;;8.35;;
52574;SDS011;38468;48.114;-1.684;2023-05-02T06:54:23;12.98;;;6.72;;
52574;SDS011;38468;48.114;-1.684;2023-05-02T06:56:24;11.00;;;6.68;;
52574;SDS011;38468;48.114;-1.684;2023-05-02T06:58:25;16.17;;;7.45;;
52574;SDS011;38468;48.114;-1.684;2023-05-02T07:00:26;10.23;;;8.23;;
52574;SDS011;38468;48.114;-1.684;2023-05-02T07:02:27;11.98;;;7.28;;
52574;SDS011;38468;48.114;-1.684;2023-05-02T07:04:27;14.75;;;6.60;;
52574;SDS011;38468;48.114;-1.684;2023-05-02T07:06:28;8.65;;;6.70;;
52574;SDS011;38468;48.114;-1.684;2023-05-02T07:08:30;11.88;;;8.23;;
52574;SDS011;38468;48.114;-1.684;2023-05-02T07:10:30;10.23;;;7.18;;
52574;SDS011;38468;48.114;-1.684;2023-05-02T07:12:31;10.65;;;7.57;;
52574;SDS011;38468;48.114;-1.684;2023-05-02T07:14:32;19.73;;;8.07;;
52574;SDS011;38468;48.114;-1.684;2023-05-02T07:16:32;18.98;;;10.32;;
52574;SDS011;38468;48.114;-1.684;2023-05-02T07:18:33;30.15;;;9.73;;
52574;SDS011;38468;48.114;-1.684;2023-05-02T07:20:34;19.13;;;7.75;;
52574;SDS011;38468;48.114;-1.684;2023-05-02T07:22:34;13.18;;;7.00;;
52574;SDS011;38468;48.114;-1.684;2023-05-02T07:24:39;10.23;;;6.68;;
52574;SDS011;38468;48.114;-1.684;2023-05-02T07:26:40;8.65;;;6.88;;
52574;SDS011;38468;48.114;-1.684;2023-05-02T07:28:41;14.10;;;7.15;;
52574;SDS011;38468;48.114;-1.684;2023-05-02T07:30:42;9.18;;;7.20;;
52574;SDS011;38468;48.114;-1.684;2023-05-02T07:32:42;11.00;;;6.50;;
52574;SDS011;38468;48.114;-1.684;2023-05-02T07:34:44;15.25;;;7.43;;
52574;SDS011;38468;48.114;-1.684;2023-05-02T07:36:44;17.98;;;7.82;;
52574;SDS011;38468;48.114;-1.684;2023-05-02T07:38:45;16.02;;;8.57;;
52574;SDS011;38468;48.114;-1.684;2023-05-02T07:40:45;13.15;;;7.68;;
52574;SDS011;38468;48.114;-1.684;2023-05-02T07:42:47;11.45;;;6.88;;
52574;SDS011;38468;48.114;-1.684;2023-05-02T07:44:47;7.90;;;6.57;;
52574;SDS011;38468;48.114;-1.684;2023-05-02T07:46:48;13.73;;;8.07;;
52574;SDS011;38468;48.114;-1.684;2023-05-02T07:48:49;10.23;;;6.80;;
52574;SDS011;38468;48.114;-1.684;2023-05-02T07:50:52;12.05;;;7.00;;
52574;SDS011;38468;48.114;-1.684;2023-05-02T07:52:54;11.25;;;7.20;;
52574;SDS011;38468;48.114;-1.684;2023-05-02T07:54:55;8.90;;;6.80;;
52574;SDS011;38468;48.114;-1.684;2023-05-02T07:56:55;11.30;;;5.97;;
52574;SDS011;38468;48.114;-1.684;2023-05-02T07:59:00;24.85;;;11.55;;
52574;SDS011;38468;48.114;-1.684;2023-05-02T08:01:01;8.93;;;6.57;;
52574;SDS011;38468;48.114;-1.684;2023-05-02T08:03:03;9.00;;;6.28;;
52574;SDS011;38468;48.114;-1.684;2023-05-02T08:05:03;7.10;;;6.40;;
52574;SDS011;38468;48.114;-1.684;2023-05-02T08:07:04;7.15;;;5.78;;
52574;SDS011;38468;48.114;-1.684;2023-05-02T08:09:05;6.22;;;4.72;;
52574;SDS011;38468;48.114;-1.684;2023-05-02T08:11:06;8.32;;;5.07;;
52574;SDS011;38468;48.114;-1.684;2023-05-02T08:13:06;7.25;;;4.88;;
52574;SDS011;38468;48.114;-1.684;2023-05-02T08:15:07;6.53;;;5.50;;
52574;SDS011;38468;48.114;-1.684;2023-05-02T08:17:11;6.68;;;4.40;;
52574;SDS011;38468;48.114;-1.684;2023-05-02T08:19:11;5.13;;;4.45;;
52574;SDS011;38468;48.114;-1.684;2023-05-02T08:21:12;6.38;;;4.05;;
52574;SDS011;38468;48.114;-1.684;2023-05-02T08:23:13;7.05;;;4.00;;
52574;SDS011;38468;48.114;-1.684;2023-05-02T08:25:14;11.68;;;4.88;;
52574;SDS011;38468;48.114;-1.684;2023-05-02T08:27:14;11.75;;;5.55;;
52574;SDS011;38468;48.114;-1.684;2023-05-02T08:29:15;7.65;;;4.72;;
52574;SDS011;38468;48.114;-1.684;2023-05-02T08:31:16;6.95;;;4.50;;
52574;SDS011;38468;48.114;-1.684;2023-05-02T08:33:17;5.57;;;4.83;;
52574;SDS011;38468;48.114;-1.684;2023-05-02T08:35:17;6.47;;;4.57;;
52574;SDS011;38468;48.114;-1.684;2023-05-02T08:37:18;6.68;;;4.65;;
52574;SDS011;38468;48.114;-1.684;2023-05-02T08:39:19;5.30;;;4.50;;
52574;SDS011;38468;48.114;-1.684;2023-05-02T08:41:20;7.33;;;4.50;;
52574;SDS011;38468;48.114;-1.684;2023-05-02T08:43:21;5.70;;;4.65;;
52574;SDS011;38468;48.114;-1.684;2023-05-02T08:45:22;9.47;;;5.10;;
52574;SDS011;38468;48.114;-1.684;2023-05-02T08:47:24;6.90;;;4.97;;
52574;SDS011;38468;48.114;-1.684;2023-05-02T08:49:26;4.72;;;4.25;;
52574;SDS011;38468;48.114;-1.684;2023-05-02T08:51:30;5.88;;;4.45;;
52574;SDS011;38468;48.114;-1.684;2023-05-02T08:53:33;4.38;;;3.95;;
52574;SDS011;38468;48.114;-1.684;2023-05-02T08:55:35;5.47;;;3.90;;
52574;SDS011;38468;48.114;-1.684;2023-05-02T08:57:38;5.18;;;3.35;;
52574;SDS011;38468;48.114;-1.684;2023-05-02T08:59:42;5.47;;;3.75;;
52574;SDS011;38468;48.114;-1.684;2023-05-02T09:01:43;5.82;;;4.32;;
52574;SDS011;38468;48.114;-1.684;2023-05-02T09:03:46;6.03;;;3.80;;
52574;SDS011;38468;48.114;-1.684;2023-05-02T09:05:51;6.50;;;4.20;;
52574;SDS011;38468;48.114;-1.684;2023-05-02T09:07:56;5.47;;;3.90;;
52574;SDS011;38468;48.114;-1.684;2023-05-02T09:09:57;6.40;;;4.50;;
52574;SDS011;38468;48.114;-1.684;2023-05-02T09:11:57;5.03;;;4.53;;
52574;SDS011;38468;48.114;-1.684;2023-05-02T09:13:58;4.63;;;3.78;;
52574;SDS011;38468;48.114;-1.684;2023-05-02T09:16:04;4.60;;;3.17;;
52574;SDS011;38468;48.114;-1.684;2023-05-02T09:18:09;5.88;;;3.88;;
52574;SDS011;38468;48.114;-1.684;2023-05-02T09:20:19;3.63;;;3.30;;
52574;SDS011;38468;48.114;-1.684;2023-05-02T09:22:22;4.28;;;3.83;;
52574;SDS011;38468;48.114;-1.684;2023-05-02T09:24:23;3.65;;;3.30;;
52574;SDS011;38468;48.114;-1.684;2023-05-02T09:26:28;5.45;;;3.40;;
52574;SDS011;38468;48.114;-1.684;2023-05-02T09:28:41;6.30;;;3.58;;
52574;SDS011;38468;48.114;-1.684;2023-05-02T09:32:44;8.38;;;2.95;;
52574;SDS011;38468;48.114;-1.684;2023-05-02T09:35:03;7.05;;;3.10;;
52574;SDS011;38468;48.114;-1.684;2023-05-02T09:37:05;4.88;;;3.78;;
52574;SDS011;38468;48.114;-1.684;2023-05-02T09:39:09;5.32;;;2.80;;
52574;SDS011;38468;48.114;-1.684;2023-05-02T09:41:12;3.13;;;2.83;;
52574;SDS011;38468;48.114;-1.684;2023-05-02T09:43:13;2.88;;;2.53;;
52574;SDS011;38468;48.114;-1.684;2023-05-02T09:45:34;4.72;;;2.30;;
52574;SDS011;38468;48.114;-1.684;2023-05-02T09:47:34;3.45;;;2.72;;
52574;SDS011;38468;48.114;-1.684;2023-05-02T09:49:42;5.22;;;2.85;;
52574;SDS011;38468;48.114;-1.684;2023-05-02T09:51:47;4.68;;;2.97;;
52574;SDS011;38468;48.114;-1.684;2023-05-02T09:53:48;6.00;;;2.55;;
52574;SDS011;38468;48.114;-1.684;2023-05-02T09:55:58;3.50;;;2.38;;
52574;SDS011;38468;48.114;-1.684;2023-05-02T09:58:03;5.55;;;2.58;;
52574;SDS011;38468;48.114;-1.684;2023-05-02T10:00:05;4.07;;;2.67;;
52574;SDS011;38468;48.114;-1.684;2023-05-02T10:02:07;3.03;;;1.60;;
52574;SDS011;38468;48.114;-1.684;2023-05-02T10:04:11;2.50;;;1.63;;
52574;SDS011;38468;48.114;-1.684;2023-05-02T10:06:17;4.30;;;1.80;;
52574;SDS011;38468;48.114;-1.684;2023-05-02T10:08:19;6.28;;;2.03;;
52574;SDS011;38468;48.114;-1.684;2023-05-02T10:12:21;3.38;;;1.27;;
52574;SDS011;38468;48.114;-1.684;2023-05-02T10:14:27;2.83;;;1.70;;
52574;SDS011;38468;48.114;-1.684;2023-05-02T10:16:28;3.42;;;1.70;;
52574;SDS011;38468;48.114;-1.684;2023-05-02T10:18:39;3.28;;;1.83;;
52574;SDS011;38468;48.114;-1.684;2023-05-02T10:21:07;2.72;;;2.13;;
52574;SDS011;38468;48.114;-1.684;2023-05-02T10:23:10;2.08;;;1.88;;
52574;SDS011;38468;48.114;-1.684;2023-05-02T10:25:12;3.20;;;2.28;;
52574;SDS011;38468;48.114;-1.684;2023-05-02T10:27:12;4.18;;;2.42;;
52574;SDS011;38468;48.114;-1.684;2023-05-02T10:29:13;3.22;;;2.42;;
52574;SDS011;38468;48.114;-1.684;2023-05-02T10:31:14;5.35;;;2.75;;
52574;SDS011;38468;48.114;-1.684;2023-05-02T10:33:16;1.92;;;1.73;;
52574;SDS011;38468;48.114;-1.684;2023-05-02T10:35:19;3.20;;;2.28;;
52574;SDS011;38468;48.114;-1.684;2023-05-02T10:37:22;2.58;;;2.00;;
52574;SDS011;38468;48.114;-1.684;2023-05-02T10:39:27;3.63;;;2.58;;
52574;SDS011;38468;48.114;-1.684;2023-05-02T10:41:29;5.28;;;2.35;;
52574;SDS011;38468;48.114;-1.684;2023-05-02T10:43:33;2.33;;;1.95;;
52574;SDS011;38468;48.114;-1.684;2023-05-02T10:45:35;3.85;;;2.50;;
52574;SDS011;38468;48.114;-1.684;2023-05-02T10:47:36;8.00;;;3.13;;
52574;SDS011;38468;48.114;-1.684;2023-05-02T10:49:48;4.00;;;2.38;;
52574;SDS011;38468;48.114;-1.684;2023-05-02T10:54:40;4.07;;;2.28;;
52574;SDS011;38468;48.114;-1.684;2023-05-02T11:06:05;1.90;;;1.80;;
52574;SDS011;38468;48.114;-1.684;2023-05-02T11:14:49;1.75;;;1.65;;
52574;SDS011;38468;48.114;-1.684;2023-05-02T11:19:05;3.28;;;1.90;;
52574;SDS011;38468;48.114;-1.684;2023-05-02T11:21:25;4.15;;;2.00;;
52574;SDS011;38468;48.114;-1.684;2023-05-02T11:23:30;2.50;;;1.90;;
52574;SDS011;38468;48.114;-1.684;2023-05-02T11:25:32;1.63;;;1.52;;
52574;SDS011;38468;48.114;-1.684;2023-05-02T11:27:36;3.53;;;1.70;;
52574;SDS011;38468;48.114;-1.684;2023-05-02T11:32:14;2.03;;;1.80;;
52574;SDS011;38468;48.114;-1.684;2023-05-02T11:34:15;1.92;;;1.58;;
52574;SDS011;38468;48.114;-1.684;2023-05-02T11:36:26;3.15;;;2.20;;
52574;SDS011;38468;48.114;-1.684;2023-05-02T11:38:35;2.58;;;1.80;;
52574;SDS011;38468;48.114;-1.684;2023-05-02T11:40:37;1.33;;;1.20;;
52574;SDS011;38468;48.114;-1.684;2023-05-02T11:42:38;1.58;;;1.48;;
52574;SDS011;38468;48.114;-1.684;2023-05-02T11:44:57;1.73;;;1.42;;
52574;SDS011;38468;48.114;-1.684;2023-05-02T11:47:00;1.80;;;1.67;;
52574;SDS011;38468;48.114;-1.684;2023-05-02T11:51:02;2.03;;;1.90;;
52574;SDS011;38468;48.114;-1.684;2023-05-02T11:53:04;3.10;;;2.35;;
52574;SDS011;38468;48.114;-1.684;2023-05-02T11:55:14;3.35;;;1.70;;
52574;SDS011;38468;48.114;-1.684;2023-05-02T11:57:14;3.03;;;1.55;;
52574;SDS011;38468;48.114;-1.684;2023-05-02T11:59:15;3.08;;;1.70;;
52574;SDS011;38468;48.114;-1.684;2023-05-02T12:01:16;3.13;;;1.50;;
52574;SDS011;38468;48.114;-1.684;2023-05-02T12:03:21;1.75;;;1.65;;
52574;SDS011;38468;48.114;-1.684;2023-05-02T12:05:27;1.30;;;1.17;;
52574;SDS011;38468;48.114;-1.684;2023-05-02T12:07:44;2.25;;;1.30;;
52574;SDS011;38468;48.114;-1.684;2023-05-02T12:09:51;1.95;;;1.55;;
52574;SDS011;38468;48.114;-1.684;2023-05-02T12:11:52;1.70;;;1.60;;
52574;SDS011;38468;48.114;-1.684;2023-05-02T12:13:53;1.80;;;1.43;;
52574;SDS011;38468;48.114;-1.684;2023-05-02T12:15:55;7.47;;;2.47;;
52574;SDS011;38468;48.114;-1.684;2023-05-02T12:17:56;1.80;;;1.70;;
52574;SDS011;38468;48.114;-1.684;2023-05-02T12:19:57;2.78;;;1.50;;
52574;SDS011;38468;48.114;-1.684;2023-05-02T12:21:58;2.63;;;1.63;;
52574;SDS011;38468;48.114;-1.684;2023-05-02T12:24:00;3.87;;;1.40;;
52574;SDS011;38468;48.114;-1.684;2023-05-02T12:26:14;2.38;;;1.15;;
52574;SDS011;38468;48.114;-1.684;2023-05-02T12:28:24;2.67;;;1.60;;
52574;SDS011;38468;48.114;-1.684;2023-05-02T12:30:25;2.43;;;1.47;;
52574;SDS011;38468;48.114;-1.684;2023-05-02T12:32:31;2.30;;;1.58;;
52574;SDS011;38468;48.114;-1.684;2023-05-02T12:34:33;1.48;;;1.27;;
52574;SDS011;38468;48.114;-1.684;2023-05-02T12:36:35;1.58;;;1.48;;
52574;SDS011;38468;48.114;-1.684;2023-05-02T12:38:47;1.58;;;1.48;;
52574;SDS011;38468;48.114;-1.684;2023-05-02T12:40:51;3.90;;;1.65;;
52574;SDS011;38468;48.114;-1.684;2023-05-02T12:43:05;1.23;;;1.23;;
52574;SDS011;38468;48.114;-1.684;2023-05-02T12:45:15;1.80;;;1.38;;
52574;SDS011;38468;48.114;-1.684;2023-05-02T12:47:16;4.07;;;2.05;;
52574;SDS011;38468;48.114;-1.684;2023-05-02T12:49:18;2.35;;;1.98;;
52574;SDS011;38468;48.114;-1.684;2023-05-02T12:51:19;3.17;;;1.25;;